Terminal Aerodrome Forecast
Issued by NWS

Home | Current Version | Previous Version | Graphics & Text | Print | Product List | Glossary On
Versions: 1 2 3 4 5 6 7 8 9 10 11 12 13 14 15 16 17 18 19 20 21 22 23 24 25 26 27 28
000
FTUS45 KGGW 240500
TAFOLF
TAF
KOLF 240521Z 2406/2506 28010KT P6SM BKN110
     FM241200 VRB05KT P6SM VCSH OVC050
     FM241800 00000KT 3SM -FZRASN OVC009
     FM250000 00000KT P6SM VCSH BKN024=

USA.gov is the U.S. government's official web portal to all federal, state and local government web resources and services.